Costa Magica — IBQQ — position and weather

sailwx.info

Track history (hours):
 
Tides and Currents Weather Stations Pressure Air Temp Water Temp Dewpoint Dewpoint Depression Visibility Wind Speed Wind Dir Waves Ship Positions

Costa Magica

Last reported at 2017-Dec-15 06:27 UTC. Time now 2017-Dec-15 06:37 UTC.
Position N 15°22' W 061°45'.

Type: Ship. MMSI: 247113300.

Date/timePositionNaut miles runAvg speedWind from/ knotsBaromVisibWave heightAir tempDewpointWater temp
2017-Dec-15 06:27N 15°22' W 061°45'612.9
2017-Dec-15 06:01N 15°16' W 061°45'1112.6
2017-Dec-15 05:08N 15°06' W 061°41'213.5
2017-Dec-15 05:00N 15°04' W 061°40'713.3
2017-Dec-15 04:30N 14°59' W 061°37'713.1
2017-Dec-15 04:00N 14°53' W 061°33'1913.0
2017-Dec-15 02:30N 14°36' W 061°23'1912.4
2017-Dec-15 01:00N 14°35' W 061°04'1 1.6
2017-Dec-15 00:30N 14°36' W 061°04'0 0.0
2017-Dec-14 17:18N 14°36' W 061°04'0 0.0
2017-Dec-14 16:54N 14°36' W 061°04'0 0.0
2017-Dec-14 16:24N 14°36' W 061°04'0 0.0
2017-Dec-14 15:00N 14°36' W 061°04'0 0.0
2017-Dec-14 14:30N 14°36' W 061°04'0 0.0
2017-Dec-14 14:00N 14°36' W 061°04'0 0.0
2017-Dec-14 13:27N 14°36' W 061°04'0 0.0
2017-Dec-14 13:00N 14°36' W 061°04'0 0.0
2017-Dec-14 12:30N 14°36' W 061°04'0 0.0
2017-Dec-14 11:57N 14°36' W 061°04'0 0.0
2017-Dec-14 11:27N 14°36' W 061°04'0 0.0
2017-Dec-14 11:00N 14°36' W 061°04'0 0.0
2017-Dec-14 10:30N 14°36' W 061°04'0 0.0
2017-Dec-14 09:57N 14°36' W 061°04'0 0.0
2017-Dec-14 09:30N 14°36' W 061°04'0 0.0
2017-Dec-14 09:00N 14°36' W 061°04'0 0.0
2017-Dec-14 08:30N 14°36' W 061°04'0 0.0
2017-Dec-14 08:00N 14°36' W 061°04'0 0.0
2017-Dec-14 07:30N 14°36' W 061°04'0 0.0
2017-Dec-14 06:21N 14°36' W 061°04'0 0.4
2017-Dec-14 06:00N 14°36' W 061°04'4 7.7
2017-Dec-14 05:30N 14°34' W 061°07'714.1
2017-Dec-14 05:01N 14°30' W 061°13'1019.9
2017-Dec-14 04:31N 14°21' W 061°17'1120.4
2017-Dec-14 03:59N 14°11' W 061°21'9 0.3
2017-Dec-13 00:31N 14°03' W 061°18'211.8
2017-Dec-13 00:18N 14°03' W 061°15'412.0
2017-Dec-13 00:00N 14°03' W 061°12'612.3
2017-Dec-12 23:29N 14°03' W 061°05'510.0
2017-Dec-12 22:58N 14°01' W 060°60'0 0.7
2017-Dec-12 22:24N 14°01' W 060°60'0 0.0
2017-Dec-12 21:21N 14°01' W 060°60'0 0.0
2017-Dec-12 20:51N 14°01' W 060°60'0 0.0
2017-Dec-12 17:45N 14°01' W 060°60'0 0.0
2017-Dec-12 17:27N 14°01' W 060°60'0 0.0
2017-Dec-12 14:15N 14°01' W 060°60'0 0.0
2017-Dec-12 13:54N 14°01' W 060°60'0 0.0
2017-Dec-12 13:27N 14°01' W 060°60'0 0.1
2017-Dec-12 12:16N 14°01' W 060°60'2 3.8
2017-Dec-12 11:49N 14°02' W 061°01'2 7.6
2017-Dec-12 11:30N 14°03' W 061°03'510.4
2017-Dec-12 11:00N 14°01' W 061°08'2712.6
2017-Dec-12 08:54N 13°37' W 060°56'  
Track history (hours):
 
Tides and Currents Weather Stations Pressure Air Temp Water Temp Dewpoint Dewpoint Depression Visibility Wind Speed Wind Dir Waves Ship Positions

Costa Magica

Last reported at 2017-Dec-15 06:27 UTC. Time now 2017-Dec-15 06:37 UTC.
Position N 15°22' W 061°45'.

Type: Ship. MMSI: 247113300.

Date/timePositionNaut miles runAvg speedWind from/ knotsBaromVisibWave heightAir tempDewpointWater temp
2017-Dec-15 06:27N 15°22' W 061°45'612.9
2017-Dec-15 06:01N 15°16' W 061°45'1112.6
2017-Dec-15 05:08N 15°06' W 061°41'213.5
2017-Dec-15 05:00N 15°04' W 061°40'713.3
2017-Dec-15 04:30N 14°59' W 061°37'713.1
2017-Dec-15 04:00N 14°53' W 061°33'1913.0
2017-Dec-15 02:30N 14°36' W 061°23'1912.4
2017-Dec-15 01:00N 14°35' W 061°04'1 1.6
2017-Dec-15 00:30N 14°36' W 061°04'0 0.0
2017-Dec-14 17:18N 14°36' W 061°04'0 0.0
2017-Dec-14 16:54N 14°36' W 061°04'0 0.0
2017-Dec-14 16:24N 14°36' W 061°04'0 0.0
2017-Dec-14 15:00N 14°36' W 061°04'0 0.0
2017-Dec-14 14:30N 14°36' W 061°04'0 0.0
2017-Dec-14 14:00N 14°36' W 061°04'0 0.0
2017-Dec-14 13:27N 14°36' W 061°04'0 0.0
2017-Dec-14 13:00N 14°36' W 061°04'0 0.0
2017-Dec-14 12:30N 14°36' W 061°04'0 0.0
2017-Dec-14 11:57N 14°36' W 061°04'0 0.0
2017-Dec-14 11:27N 14°36' W 061°04'0 0.0
2017-Dec-14 11:00N 14°36' W 061°04'0 0.0
2017-Dec-14 10:30N 14°36' W 061°04'0 0.0
2017-Dec-14 09:57N 14°36' W 061°04'0 0.0
2017-Dec-14 09:30N 14°36' W 061°04'0 0.0
2017-Dec-14 09:00N 14°36' W 061°04'0 0.0
2017-Dec-14 08:30N 14°36' W 061°04'0 0.0
2017-Dec-14 08:00N 14°36' W 061°04'0 0.0
2017-Dec-14 07:30N 14°36' W 061°04'0 0.0
2017-Dec-14 06:21N 14°36' W 061°04'0 0.4
2017-Dec-14 06:00N 14°36' W 061°04'4 7.7
2017-Dec-14 05:30N 14°34' W 061°07'714.1
2017-Dec-14 05:01N 14°30' W 061°13'1019.9
2017-Dec-14 04:31N 14°21' W 061°17'1120.4
2017-Dec-14 03:59N 14°11' W 061°21'9 0.3
2017-Dec-13 00:31N 14°03' W 061°18'211.8
2017-Dec-13 00:18N 14°03' W 061°15'412.0
2017-Dec-13 00:00N 14°03' W 061°12'612.3
2017-Dec-12 23:29N 14°03' W 061°05'510.0
2017-Dec-12 22:58N 14°01' W 060°60'0 0.7
2017-Dec-12 22:24N 14°01' W 060°60'0 0.0
2017-Dec-12 21:21N 14°01' W 060°60'0 0.0
2017-Dec-12 20:51N 14°01' W 060°60'0 0.0
2017-Dec-12 17:45N 14°01' W 060°60'0 0.0
2017-Dec-12 17:27N 14°01' W 060°60'0 0.0
2017-Dec-12 14:15N 14°01' W 060°60'0 0.0
2017-Dec-12 13:54N 14°01' W 060°60'0 0.0
2017-Dec-12 13:27N 14°01' W 060°60'0 0.1
2017-Dec-12 12:16N 14°01' W 060°60'2 3.8
2017-Dec-12 11:49N 14°02' W 061°01'2 7.6
2017-Dec-12 11:30N 14°03' W 061°03'510.4
2017-Dec-12 11:00N 14°01' W 061°08'2712.6
2017-Dec-12 08:54N 13°37' W 060°56'  

Dump ship's entire track history